Latest Weather Observations for Birdsville

IDQ60801

Issued at 1:02 pm EST Tuesday 3 March 2015 (issued every 30 minutes, with the page automatically refreshed every 10 minutes)

About weather observations | Map of weather stations | Latest weather observations for QLD | Other Formats
Station Details ID: 038026 Name: BIRDSVILLE AIRPORT Lat: -25.90 Lon: 139.35 Height: 46.6 m
Data from the previous 72 hours. | See also: Recent months at Birdsville
Date/Time
EST
Temp
°C
App
Temp
°C
Dew
Point
Rel
Hum
%
Delta-T
°C
Wind Press
QNH
hPa
Press
MSL
hPa
Rain
since 9 am
mm
Dir
 
Spd
km/h
Gust
km/h
Spd
kts
Gust
kts
03/01:00pm 43.3 38.4 5.1 10 21.4 ESE 20 28 11 15 1008.2 - 0.0
03/12:30pm 42.0 36.4 5.5 11 20.4 SE 24 35 13 19 1008.6 - 0.0
03/12:00pm 41.3 35.6 4.9 11 20.1 SE 24 33 13 18 1009.0 1008.7 0.0
03/11:30am 40.0 34.7 5.2 12 19.2 SE 22 30 12 16 1009.4 - 0.0
03/11:00am 39.1 32.9 4.5 12 18.8 SE 26 33 14 18 1009.8 - 0.0
03/10:30am 38.0 32.7 4.8 13 18.0 SE 22 32 12 17 1009.9 - 0.0
03/10:00am 36.5 30.8 4.7 14 17.1 SE 24 32 13 17 1010.0 - 0.0
03/09:30am 35.1 29.0 4.6 15 16.3 ESE 26 30 14 16 1009.9 - 0.0
03/09:00am 33.4 26.6 3.3 15 15.6 SE 28 32 15 17 1009.7 1009.3 0.0
03/08:30am 32.1 24.9 3.1 16 14.8 SE 30 39 16 21 1009.5 - 0.0
03/08:00am 30.8 24.7 2.9 17 14.1 SE 24 33 13 18 1009.2 - 0.0
03/07:30am 29.8 24.2 3.7 19 13.3 SE 22 30 12 16 1008.9 - 0.0
03/07:00am 29.1 24.0 3.9 20 12.8 SE 20 26 11 14 1008.6 - 0.0
03/06:30am 29.3 24.1 3.3 19 13.1 SE 20 28 11 15 1008.1 - 0.0
03/06:00am 29.7 23.4 3.6 19 13.3 SE 26 33 14 18 1007.6 1007.2 0.0
03/05:30am 29.9 23.6 3.8 19 13.3 SE 26 37 14 20 1007.5 - 0.0
03/05:00am 30.0 23.9 4.6 20 13.1 SE 26 35 14 19 1007.5 - 0.0
03/04:30am 30.3 23.5 4.9 20 13.2 SSE 30 37 16 20 1007.3 - 0.0
03/04:00am 30.5 23.5 4.3 19 13.5 SSE 30 39 16 21 1007.1 - 0.0
03/03:30am 30.8 23.5 4.5 19 13.7 SSE 32 39 17 21 1007.0 - 0.0
03/03:00am 31.1 24.8 5.5 20 13.6 SSE 28 35 15 19 1007.0 1006.7 0.0
03/02:30am 31.6 25.2 5.2 19 13.9 SSE 28 37 15 20 1007.0 - 0.0
03/02:00am 31.9 25.9 5.4 19 14.1 SSE 26 35 14 19 1007.3 - 0.0
03/01:30am 32.6 27.1 6.0 19 14.3 SSE 24 32 13 17 1007.3 - 0.0
03/01:00am 33.4 27.9 5.9 18 14.8 SSE 24 33 13 18 1007.4 - 0.0
03/12:30am 33.5 28.6 5.1 17 15.1 SSE 20 26 11 14 1007.5 - 0.0
03/12:00am 34.1 29.1 4.7 16 15.6 SSE 20 26 11 14 1007.5 1007.3 0.0
 
Date/Time
EST
Temp
°C
App
Temp
°C
Dew
Point
Rel
Hum
%
Delta-T
°C
Wind Press
QNH
hPa
Press
MSL
hPa
Rain
since 9 am
mm
Dir
 
Spd
km/h
Gust
km/h
Spd
kts
Gust
kts
02/11:30pm 34.4 28.9 4.0 15 16.0 S 22 26 12 14 1007.6 - 0.0
02/11:00pm 35.0 30.0 4.5 15 16.2 S 20 26 11 14 1007.7 - 0.0
02/10:30pm 35.4 30.4 4.8 15 16.4 S 20 26 11 14 1007.6 - 0.0
02/10:00pm 36.3 30.5 4.6 14 17.0 S 24 30 13 16 1007.2 - 0.0
02/09:30pm 37.1 31.8 5.2 14 17.3 S 22 28 12 15 1006.9 - 0.0
02/09:00pm 37.8 33.2 5.7 14 17.7 S 19 26 10 14 1006.4 1006.1 0.0
02/08:30pm 38.1 34.0 6.0 14 17.8 S 17 20 9 11 1006.0 - 0.0
02/08:00pm 38.8 34.8 6.5 14 18.1 S 17 20 9 11 1005.6 - 0.0
02/07:30pm 39.6 35.5 6.1 13 18.7 S 17 22 9 12 1005.4 - 0.0
02/07:00pm 40.6 36.3 6.8 13 19.1 S 19 20 10 11 1005.3 - 0.0
02/06:30pm 41.3 36.8 6.2 12 19.8 SSE 19 24 10 13 1005.0 - 0.0
02/06:00pm 41.9 38.7 6.7 12 20.1 S 13 26 7 14 1004.9 1004.6 0.0
02/05:30pm 41.9 37.5 6.7 12 20.0 SSE 19 22 10 12 1004.8 - 0.0
02/05:00pm 42.5 39.7 7.1 12 20.3 S 11 22 6 12 1004.6 - 0.0
02/04:30pm 42.4 39.2 7.0 12 20.3 SSW 13 20 7 11 1004.4 - 0.0
02/04:00pm 42.5 38.0 5.9 11 20.6 SSE 19 28 10 15 1004.5 - 0.0
02/03:30pm 42.2 38.6 6.9 12 20.2 E 15 20 8 11 1004.7 - 0.0
02/03:00pm 42.1 38.5 6.8 12 20.2 E 15 22 8 12 1005.1 1004.8 0.0
02/02:30pm 41.3 38.0 6.2 12 19.8 SSE 13 26 7 14 1005.4 - 0.0
02/02:00pm 41.4 38.5 6.3 12 19.8 ESE 11 19 6 10 1005.6 - 0.0
02/01:30pm 41.3 37.2 6.2 12 19.8 SE 17 28 9 15 1006.0 - 0.0
02/01:00pm 40.9 37.0 7.1 13 19.2 E 17 24 9 13 1006.6 - 0.0
02/12:30pm 40.2 36.0 7.6 14 18.6 E 19 28 10 15 1007.0 - 0.0
02/12:00pm 38.9 34.2 7.6 15 17.8 ESE 22 28 12 15 1007.5 1007.3 0.0
02/11:30am 38.3 34.3 9.0 17 17.0 ESE 20 30 11 16 1007.9 - 0.0
02/11:00am 37.1 33.2 8.8 18 16.2 E 19 30 10 16 1008.4 - 0.0
02/10:30am 35.8 31.9 9.3 20 15.2 E 20 26 11 14 1008.6 - 0.0
02/10:00am 34.5 30.1 9.0 21 14.5 ESE 22 28 12 15 1008.6 - 0.0
02/09:30am 32.7 27.5 8.9 23 13.4 SE 26 32 14 17 1008.5 - 0.0
02/09:00am 31.4 26.6 9.0 25 12.6 SE 24 30 13 16 1008.6 1008.3 0.0
02/08:30am 30.4 25.0 8.2 25 12.2 SE 26 32 14 17 1008.5 - 0.0
02/08:00am 29.0 25.1 8.7 28 11.2 SSE 19 24 10 13 1008.4 - 0.0
02/07:30am 27.8 24.6 8.6 30 10.5 SSE 15 19 8 10 1008.4 - 0.0
02/07:00am 27.3 24.5 8.7 31 10.2 SSE 13 17 7 9 1008.3 - 0.0
02/06:30am 27.6 24.5 9.0 31 10.2 SSE 15 19 8 10 1008.0 - 0.0
02/06:00am 27.9 24.4 8.7 30 10.6 SSE 17 22 9 12 1007.5 1007.1 0.0
02/05:30am 28.1 24.6 8.9 30 10.6 SSE 17 22 9 12 1007.1 - 0.0
02/05:00am 28.3 24.4 8.6 29 10.8 SSE 19 24 10 13 1006.8 - 0.0
02/04:30am 28.7 24.9 8.9 29 10.9 SSE 19 28 10 15 1006.7 - 0.0
02/04:00am 29.0 25.1 8.7 28 11.2 SSE 19 24 10 13 1006.9 - 0.0
02/03:30am 29.3 25.3 8.9 28 11.3 SSE 20 26 11 14 1007.0 - 0.0
02/03:00am 29.5 25.0 8.5 27 11.6 SSE 22 30 12 16 1006.9 1006.6 0.0
02/02:30am 29.7 24.9 8.7 27 11.6 S 24 32 13 17 1007.0 - 0.0
02/02:00am 30.1 25.0 9.1 27 11.7 SSE 26 35 14 19 1007.0 - 0.0
02/01:30am 30.4 25.6 8.7 26 12.1 SSE 24 33 13 18 1007.1 - 0.0
02/01:00am 30.7 25.5 9.0 26 12.1 S 26 33 14 18 1007.5 - 0.0
02/12:30am 31.3 25.7 8.9 25 12.5 S 28 39 15 21 1007.7 - 0.0
02/12:00am 31.7 26.1 8.7 24 12.9 S 28 35 15 19 1007.7 1007.3 0.0
 
Date/Time
EST
Temp
°C
App
Temp
°C
Dew
Point
Rel
Hum
%
Delta-T
°C
Wind Press
QNH
hPa
Press
MSL
hPa
Rain
since 9 am
mm
Dir
 
Spd
km/h
Gust
km/h
Spd
kts
Gust
kts
01/11:30pm 32.1 26.9 9.0 24 13.0 S 26 35 14 19 1007.7 - 0.0
01/11:00pm 32.7 26.8 8.9 23 13.4 S 30 41 16 22 1007.8 - 0.0
01/10:30pm 33.4 27.1 8.8 22 13.9 S 32 41 17 22 1007.8 - 0.0
01/10:00pm 34.2 28.6 8.8 21 14.4 S 28 37 15 20 1007.5 - 0.0
01/09:30pm 35.0 29.2 9.4 21 14.7 S 30 39 16 21 1007.0 - 0.0
01/09:00pm 36.0 30.2 9.5 20 15.3 S 30 43 16 23 1006.6 1006.3 0.0
01/08:30pm 36.7 30.9 9.3 19 15.8 S 30 39 16 21 1006.2 - 0.0
01/08:00pm 37.5 31.6 9.2 18 16.4 S 30 41 16 22 1005.7 - 0.0
01/07:30pm 38.3 32.3 7.1 15 17.6 S 28 37 15 20 1005.2 - 0.0
01/07:00pm 39.4 33.4 7.0 14 18.3 S 28 35 15 19 1004.9 - 0.0
01/06:30pm 40.3 34.2 6.6 13 19.0 S 28 37 15 20 1004.7 - 0.0
01/06:00pm 41.3 35.9 6.2 12 19.8 S 24 32 13 17 1004.3 1003.9 0.0
01/05:30pm 41.4 35.7 5.0 11 20.1 S 24 35 13 19 1004.2 - 0.0
01/05:00pm 42.4 37.3 5.8 11 20.6 SSW 22 32 12 17 1004.0 - 0.0
01/04:30pm 42.0 36.5 4.1 10 20.8 SE 22 33 12 18 1004.1 - 0.0
01/04:00pm 43.0 38.6 4.9 10 21.2 SW 17 28 9 15 1004.1 - 0.0
01/03:30pm 41.7 37.9 3.9 10 20.6 SE 13 24 7 13 1004.3 - 0.0
01/03:00pm 42.7 37.9 4.6 10 21.2 SSE 19 26 10 14 1004.6 1004.3 0.0
01/02:30pm 41.8 36.7 4.0 10 20.7 ESE 20 26 11 14 1004.8 - 0.0
01/02:00pm 42.6 37.6 4.6 10 21.0 S 20 28 11 15 1005.2 - 0.0
01/01:30pm 41.7 37.5 3.9 10 20.6 SSE 15 28 8 15 1005.5 - 0.0
01/01:00pm 41.2 36.2 3.5 10 20.4 SSW 19 28 10 15 1005.9 - 0.0
01/12:30pm 41.1 35.9 3.4 10 20.4 SSE 20 26 11 14 1006.1 - 0.0
01/12:00pm 39.8 34.8 3.8 11 19.5 SSE 19 24 10 13 1006.5 1006.2 0.0
01/11:30am 39.4 34.6 4.7 12 18.9 S 19 26 10 14 1006.9 - 0.0
01/11:00am 38.9 33.5 4.4 12 18.7 S 22 28 12 15 1007.1 - 0.0
01/10:30am 38.0 32.4 3.7 12 18.3 S 22 28 12 15 1007.0 - 0.0
01/10:00am 37.1 32.0 3.0 12 17.9 S 19 22 10 12 1007.0 - 0.0
01/09:30am 35.1 29.9 2.6 13 16.8 S 19 22 10 12 1006.9 - 0.0
01/09:00am 34.9 29.7 2.4 13 16.7 SSW 19 22 10 12 1006.7 1006.3 0.0
01/08:30am 34.4 29.7 3.1 14 16.2 SSW 17 22 9 12 1006.4 - 0.0
01/08:00am 31.3 26.1 3.4 17 14.3 SW 20 24 11 13 1006.2 - 0.0
01/07:30am 30.0 27.2 3.1 18 13.6 SW 7 9 4 5 1005.7 - 0.0
01/07:00am 27.5 24.3 3.2 21 12.1 SSW 9 11 5 6 1005.1 - 0.0
01/06:30am 26.9 23.4 3.4 22 11.7 WSW 11 13 6 7 1004.6 - 0.0
01/06:00am 27.1 24.0 3.6 22 11.8 SSW 9 9 5 5 1004.0 1003.7 0.0
01/05:30am 26.9 23.6 2.7 21 11.9 SSW 9 9 5 5 1004.0 - 0.0
01/05:00am 27.7 25.1 4.1 22 11.9 S 7 9 4 5 1003.9 - 0.0
01/04:30am 27.6 24.7 2.6 20 12.3 S 7 9 4 5 1003.5 - 0.0
01/04:00am 28.4 25.6 3.3 20 12.6 S 7 7 4 4 1003.3 - 0.0
01/03:30am 28.3 25.6 3.9 21 12.3 SSE 7 9 4 5 1003.2 - 0.0
01/03:00am 28.1 24.8 2.3 19 12.7 S 9 11 5 6 1003.3 1003.0 0.0
01/02:30am 28.2 24.9 2.4 19 12.7 S 9 11 5 6 1003.4 - 0.0
01/02:00am 29.0 25.8 3.1 19 13.0 S 9 9 5 5 1003.7 - 0.0
01/01:30am 29.7 26.5 2.9 18 13.4 S 9 9 5 5 1003.9 - 0.0
01/01:00am 30.5 28.0 3.5 18 13.8 SSE 6 7 3 4 1004.3 - 0.0
01/12:30am 30.9 27.8 3.8 18 13.9 SSE 9 11 5 6 1004.4 - 0.0
01/12:00am 32.0 29.0 3.9 17 14.6 SSE 9 11 5 6 1004.8 1004.5 0.0
 
Date/Time
EST
Temp
°C
App
Temp
°C
Dew
Point
Rel
Hum
%
Delta-T
°C
Wind Press
QNH
hPa
Press
MSL
hPa
Rain
since 9 am
mm
Dir
 
Spd
km/h
Gust
km/h
Spd
kts
Gust
kts
28/11:30pm 32.1 28.7 4.0 17 14.6 SE 11 11 6 6 1004.8 - 0.0
28/11:00pm 32.4 29.3 3.4 16 14.9 SSE 9 9 5 5 1004.8 - 0.0
28/10:30pm 34.0 30.2 3.7 15 15.8 SSE 13 17 7 9 1004.7 - 0.0
28/10:00pm 34.8 30.9 3.4 14 16.4 S 13 17 7 9 1004.5 - 0.0
28/09:30pm 35.5 31.7 3.9 14 16.7 S 13 15 7 8 1004.4 - 0.0
28/09:00pm 35.8 32.6 3.1 13 17.1 SSE 9 13 5 7 1004.0 1003.7 0.0
28/08:30pm 37.0 33.0 2.9 12 17.9 SSE 13 15 7 8 1003.7 - 0.0
28/08:00pm 37.3 34.1 3.1 12 18.0 SSE 9 9 5 5 1003.3 - 0.0
28/07:30pm 38.8 34.8 3.1 11 19.0 S 13 15 7 8 1003.1 - 0.0
28/07:00pm 39.8 35.4 2.5 10 19.7 S 15 20 8 11 1002.9 - 0.0
28/06:30pm 40.7 35.6 3.1 10 20.2 S 19 26 10 14 1002.7 - 0.0
28/06:00pm 41.0 36.5 1.9 9 20.7 SSW 15 22 8 12 1002.6 1002.3 0.0
28/05:30pm 41.5 36.4 0.6 8 21.2 SSW 17 26 9 14 1002.5 - 0.0
28/05:00pm 42.1 38.2 1.1 8 21.5 S 11 28 6 15 1002.4 - 0.0
28/04:30pm 41.8 38.2 0.8 8 21.4 SSW 9 17 5 9 1002.3 - 0.0
28/04:00pm 41.4 37.4 0.5 8 21.2 SSW 11 35 6 19 1002.3 - 0.0
28/03:30pm 41.9 36.3 0.9 8 21.4 SSW 20 28 11 15 1002.3 - 0.0
28/03:00pm 41.5 38.3 0.6 8 21.3 WSW 7 17 4 9 1002.4 1002.1 0.0
28/02:30pm 41.5 37.5 0.6 8 21.2 S 11 19 6 10 1002.8 - 0.0
28/02:00pm 40.6 35.8 0.0 8 20.8 W 15 20 8 11 1003.3 - 0.0
28/01:30pm 40.8 36.4 0.1 8 20.9 WSW 13 20 7 11 1003.8 - 0.0

Other Formats:

Comma delimited format used in spreadsheet applications
http://www.bom.gov.au/fwo/IDQ60801/IDQ60801.95482.axf

JavaScript Object Notation format (JSON) in row-major order
http://www.bom.gov.au/fwo/IDQ60801/IDQ60801.95482.json